sensor_id;sensor_type;location;lat;lon;timestamp;P1;durP1;ratioP1;P2;durP2;ratioP2
75038;SDS011;63609;49.992;14.512;2022-11-18T12:18:03;26.75;;;11.65;;
75038;SDS011;63609;49.992;14.512;2022-11-18T12:27:09;26.38;;;11.98;;
75038;SDS011;63609;49.992;14.512;2022-11-18T12:29:54;19.50;;;8.55;;
75038;SDS011;63609;49.992;14.512;2022-11-18T12:32:37;31.13;;;14.25;;
75038;SDS011;63609;49.992;14.512;2022-11-18T12:35:26;34.10;;;16.33;;
75038;SDS011;63609;49.992;14.512;2022-11-18T12:38:02;20.73;;;10.55;;
75038;SDS011;63609;49.992;14.512;2022-11-18T12:40:37;29.02;;;13.95;;
75038;SDS011;63609;49.992;14.512;2022-11-18T12:48:54;17.60;;;8.85;;
75038;SDS011;63609;49.992;14.512;2022-11-18T12:51:48;18.52;;;7.60;;
75038;SDS011;63609;49.992;14.512;2022-11-18T12:55:17;16.30;;;7.63;;
75038;SDS011;63609;49.992;14.512;2022-11-18T12:58:22;19.58;;;8.07;;
75038;SDS011;63609;49.992;14.512;2022-11-18T13:01:07;19.02;;;8.48;;
75038;SDS011;63609;49.992;14.512;2022-11-18T13:03:37;18.17;;;9.20;;
75038;SDS011;63609;49.992;14.512;2022-11-18T13:08:56;26.45;;;11.43;;
75038;SDS011;63609;49.992;14.512;2022-11-18T13:11:31;21.20;;;10.43;;
75038;SDS011;63609;49.992;14.512;2022-11-18T13:17:24;21.13;;;9.90;;
75038;SDS011;63609;49.992;14.512;2022-11-18T13:22:51;21.02;;;10.50;;
75038;SDS011;63609;49.992;14.512;2022-11-18T13:25:38;22.40;;;8.88;;
75038;SDS011;63609;49.992;14.512;2022-11-18T13:28:28;16.92;;;8.38;;
75038;SDS011;63609;49.992;14.512;2022-11-18T13:31:41;17.33;;;8.98;;
75038;SDS011;63609;49.992;14.512;2022-11-18T13:34:24;18.40;;;9.13;;
75038;SDS011;63609;49.992;14.512;2022-11-18T13:36:53;16.80;;;8.00;;
75038;SDS011;63609;49.992;14.512;2022-11-18T13:39:29;13.63;;;5.70;;
75038;SDS011;63609;49.992;14.512;2022-11-18T13:42:47;16.05;;;7.68;;
75038;SDS011;63609;49.992;14.512;2022-11-18T13:44:56;18.23;;;6.80;;
75038;SDS011;63609;49.992;14.512;2022-11-18T13:50:17;13.48;;;6.88;;
75038;SDS011;63609;49.992;14.512;2022-11-18T13:53:04;18.95;;;7.43;;
75038;SDS011;63609;49.992;14.512;2022-11-18T13:55:50;15.32;;;7.57;;
75038;SDS011;63609;49.992;14.512;2022-11-18T13:58:39;17.98;;;8.68;;
75038;SDS011;63609;49.992;14.512;2022-11-18T14:01:29;24.63;;;9.63;;
75038;SDS011;63609;49.992;14.512;2022-11-18T14:04:04;13.45;;;6.70;;
75038;SDS011;63609;49.992;14.512;2022-11-18T14:06:36;15.50;;;6.47;;
75038;SDS011;63609;49.992;14.512;2022-11-18T14:12:04;17.17;;;8.25;;
75038;SDS011;63609;49.992;14.512;2022-11-18T14:19:58;20.67;;;7.72;;
75038;SDS011;63609;49.992;14.512;2022-11-18T14:22:50;16.63;;;8.35;;
75038;SDS011;63609;49.992;14.512;2022-11-18T14:25:30;19.85;;;9.43;;
75038;SDS011;63609;49.992;14.512;2022-11-18T14:28:10;18.40;;;8.88;;
75038;SDS011;63609;49.992;14.512;2022-11-18T14:34:02;18.23;;;7.32;;
75038;SDS011;63609;49.992;14.512;2022-11-18T14:36:49;16.55;;;7.55;;
75038;SDS011;63609;49.992;14.512;2022-11-18T14:39:37;18.33;;;7.75;;
75038;SDS011;63609;49.992;14.512;2022-11-18T14:42:05;20.55;;;9.25;;
75038;SDS011;63609;49.992;14.512;2022-11-18T14:44:38;22.13;;;9.52;;
75038;SDS011;63609;49.992;14.512;2022-11-18T14:47:14;21.67;;;9.43;;
75038;SDS011;63609;49.992;14.512;2022-11-18T14:49:46;21.65;;;9.18;;
75038;SDS011;63609;49.992;14.512;2022-11-18T14:52:13;16.48;;;8.20;;
75038;SDS011;63609;49.992;14.512;2022-11-18T14:54:39;18.52;;;8.40;;
75038;SDS011;63609;49.992;14.512;2022-11-18T14:57:09;19.80;;;8.18;;
75038;SDS011;63609;49.992;14.512;2022-11-18T14:59:42;18.60;;;7.75;;
75038;SDS011;63609;49.992;14.512;2022-11-18T15:02:18;21.25;;;8.60;;
75038;SDS011;63609;49.992;14.512;2022-11-18T15:04:46;18.80;;;8.30;;
75038;SDS011;63609;49.992;14.512;2022-11-18T15:07:16;17.30;;;7.63;;
75038;SDS011;63609;49.992;14.512;2022-11-18T15:09:56;20.92;;;8.00;;
75038;SDS011;63609;49.992;14.512;2022-11-18T15:12:28;15.52;;;6.78;;
75038;SDS011;63609;49.992;14.512;2022-11-18T15:14:57;17.70;;;8.27;;
75038;SDS011;63609;49.992;14.512;2022-11-18T15:17:25;18.35;;;7.85;;
75038;SDS011;63609;49.992;14.512;2022-11-18T15:19:52;20.80;;;8.23;;
75038;SDS011;63609;49.992;14.512;2022-11-18T15:22:18;20.25;;;9.35;;
75038;SDS011;63609;49.992;14.512;2022-11-18T15:27:12;17.50;;;7.65;;
75038;SDS011;63609;49.992;14.512;2022-11-18T15:29:38;19.80;;;9.32;;
75038;SDS011;63609;49.992;14.512;2022-11-18T15:32:06;16.33;;;7.97;;
75038;SDS011;63609;49.992;14.512;2022-11-18T15:35:33;20.52;;;8.68;;
75038;SDS011;63609;49.992;14.512;2022-11-18T15:38:00;17.75;;;7.38;;
75038;SDS011;63609;49.992;14.512;2022-11-18T15:40:26;16.90;;;8.25;;
75038;SDS011;63609;49.992;14.512;2022-11-18T15:45:31;19.17;;;8.35;;
75038;SDS011;63609;49.992;14.512;2022-11-18T15:48:01;20.23;;;7.82;;
75038;SDS011;63609;49.992;14.512;2022-11-18T15:50:31;17.83;;;8.25;;
75038;SDS011;63609;49.992;14.512;2022-11-18T15:53:01;16.80;;;7.82;;
75038;SDS011;63609;49.992;14.512;2022-11-18T15:55:28;20.63;;;8.20;;
75038;SDS011;63609;49.992;14.512;2022-11-18T15:57:55;22.20;;;8.60;;
75038;SDS011;63609;49.992;14.512;2022-11-18T16:00:33;21.48;;;8.68;;
75038;SDS011;63609;49.992;14.512;2022-11-18T16:03:03;20.70;;;9.80;;
75038;SDS011;63609;49.992;14.512;2022-11-18T16:07:56;13.90;;;6.97;;
75038;SDS011;63609;49.992;14.512;2022-11-18T16:10:23;21.25;;;8.55;;
75038;SDS011;63609;49.992;14.512;2022-11-18T16:13:11;19.63;;;7.95;;
75038;SDS011;63609;49.992;14.512;2022-11-18T16:15:44;20.75;;;8.63;;
75038;SDS011;63609;49.992;14.512;2022-11-18T16:18:17;21.30;;;9.55;;
75038;SDS011;63609;49.992;14.512;2022-11-18T16:20:45;22.45;;;9.15;;
75038;SDS011;63609;49.992;14.512;2022-11-18T16:23:12;23.00;;;9.65;;
75038;SDS011;63609;49.992;14.512;2022-11-18T16:25:43;23.52;;;9.20;;
75038;SDS011;63609;49.992;14.512;2022-11-18T16:28:11;20.77;;;8.82;;
75038;SDS011;63609;49.992;14.512;2022-11-18T16:30:38;19.27;;;8.85;;
75038;SDS011;63609;49.992;14.512;2022-11-18T16:33:24;23.88;;;10.13;;
75038;SDS011;63609;49.992;14.512;2022-11-18T16:38:17;22.45;;;8.55;;
75038;SDS011;63609;49.992;14.512;2022-11-18T16:40:44;26.27;;;10.07;;
75038;SDS011;63609;49.992;14.512;2022-11-18T16:43:14;24.10;;;10.18;;
75038;SDS011;63609;49.992;14.512;2022-11-18T16:45:48;17.52;;;8.25;;
75038;SDS011;63609;49.992;14.512;2022-11-18T16:48:17;29.25;;;11.13;;
75038;SDS011;63609;49.992;14.512;2022-11-18T16:50:45;28.45;;;11.07;;
75038;SDS011;63609;49.992;14.512;2022-11-18T16:53:22;28.88;;;11.07;;
75038;SDS011;63609;49.992;14.512;2022-11-18T16:55:50;32.22;;;11.68;;
75038;SDS011;63609;49.992;14.512;2022-11-18T16:58:17;27.33;;;11.05;;
75038;SDS011;63609;49.992;14.512;2022-11-18T17:00:44;31.13;;;11.82;;
75038;SDS011;63609;49.992;14.512;2022-11-18T17:03:31;20.33;;;8.75;;
75038;SDS011;63609;49.992;14.512;2022-11-18T17:05:59;36.42;;;12.73;;
75038;SDS011;63609;49.992;14.512;2022-11-18T17:08:31;32.55;;;12.70;;
75038;SDS011;63609;49.992;14.512;2022-11-18T17:11:03;26.70;;;11.00;;
75038;SDS011;63609;49.992;14.512;2022-11-18T17:13:31;30.95;;;12.80;;
75038;SDS011;63609;49.992;14.512;2022-11-18T17:15:58;31.88;;;12.85;;
75038;SDS011;63609;49.992;14.512;2022-11-18T17:18:28;37.28;;;14.95;;
75038;SDS011;63609;49.992;14.512;2022-11-18T17:20:55;33.55;;;12.60;;
75038;SDS011;63609;49.992;14.512;2022-11-18T17:23:23;26.35;;;10.70;;
75038;SDS011;63609;49.992;14.512;2022-11-18T17:25:53;25.10;;;11.15;;
75038;SDS011;63609;49.992;14.512;2022-11-18T17:28:19;18.42;;;8.75;;
75038;SDS011;63609;49.992;14.512;2022-11-18T17:30:46;23.17;;;10.55;;
75038;SDS011;63609;49.992;14.512;2022-11-18T17:33:15;27.30;;;11.45;;
75038;SDS011;63609;49.992;14.512;2022-11-18T17:35:43;36.65;;;14.05;;
75038;SDS011;63609;49.992;14.512;2022-11-18T17:38:09;31.92;;;12.55;;
75038;SDS011;63609;49.992;14.512;2022-11-18T17:40:36;29.67;;;11.02;;
75038;SDS011;63609;49.992;14.512;2022-11-18T17:43:03;25.88;;;11.30;;
75038;SDS011;63609;49.992;14.512;2022-11-18T17:47:56;35.55;;;12.82;;
75038;SDS011;63609;49.992;14.512;2022-11-18T17:50:24;37.88;;;14.25;;
75038;SDS011;63609;49.992;14.512;2022-11-18T17:52:51;39.05;;;13.82;;
75038;SDS011;63609;49.992;14.512;2022-11-18T17:55:18;25.58;;;10.07;;
75038;SDS011;63609;49.992;14.512;2022-11-18T17:57:45;22.83;;;9.43;;
75038;SDS011;63609;49.992;14.512;2022-11-18T18:00:12;22.95;;;8.73;;
75038;SDS011;63609;49.992;14.512;2022-11-18T18:02:39;23.30;;;10.68;;
75038;SDS011;63609;49.992;14.512;2022-11-18T18:05:06;25.88;;;9.75;;
75038;SDS011;63609;49.992;14.512;2022-11-18T18:07:32;25.00;;;9.80;;
75038;SDS011;63609;49.992;14.512;2022-11-18T18:10:00;22.63;;;10.15;;
75038;SDS011;63609;49.992;14.512;2022-11-18T18:12:27;22.13;;;9.35;;
75038;SDS011;63609;49.992;14.512;2022-11-18T18:15:12;24.55;;;9.63;;
75038;SDS011;63609;49.992;14.512;2022-11-18T18:17:39;21.02;;;8.25;;
75038;SDS011;63609;49.992;14.512;2022-11-18T18:20:06;24.58;;;9.70;;
75038;SDS011;63609;49.992;14.512;2022-11-18T18:24:59;24.17;;;10.27;;
75038;SDS011;63609;49.992;14.512;2022-11-18T18:27:26;27.27;;;10.88;;
75038;SDS011;63609;49.992;14.512;2022-11-18T18:29:52;28.05;;;10.68;;
75038;SDS011;63609;49.992;14.512;2022-11-18T18:32:20;27.08;;;10.18;;
75038;SDS011;63609;49.992;14.512;2022-11-18T18:34:47;37.70;;;14.10;;
75038;SDS011;63609;49.992;14.512;2022-11-18T18:37:14;28.88;;;11.40;;
75038;SDS011;63609;49.992;14.512;2022-11-18T18:39:41;28.83;;;11.73;;
75038;SDS011;63609;49.992;14.512;2022-11-18T18:42:07;31.17;;;13.85;;
75038;SDS011;63609;49.992;14.512;2022-11-18T18:44:34;34.85;;;12.85;;
75038;SDS011;63609;49.992;14.512;2022-11-18T18:49:46;16.00;;;7.18;;
75038;SDS011;63609;49.992;14.512;2022-11-18T18:52:13;38.95;;;12.77;;
75038;SDS011;63609;49.992;14.512;2022-11-18T18:54:40;32.33;;;12.30;;
75038;SDS011;63609;49.992;14.512;2022-11-18T18:57:07;34.58;;;12.52;;
75038;SDS011;63609;49.992;14.512;2022-11-18T18:59:34;30.58;;;12.32;;
75038;SDS011;63609;49.992;14.512;2022-11-18T19:02:01;39.10;;;14.75;;
75038;SDS011;63609;49.992;14.512;2022-11-18T19:04:28;30.52;;;12.77;;
75038;SDS011;63609;49.992;14.512;2022-11-18T19:06:55;29.77;;;11.15;;
75038;SDS011;63609;49.992;14.512;2022-11-18T19:09:25;30.77;;;13.48;;
75038;SDS011;63609;49.992;14.512;2022-11-18T19:11:52;33.92;;;14.20;;
75038;SDS011;63609;49.992;14.512;2022-11-18T19:14:38;35.45;;;12.40;;
75038;SDS011;63609;49.992;14.512;2022-11-18T19:19:37;41.08;;;14.15;;
75038;SDS011;63609;49.992;14.512;2022-11-18T19:22:24;38.45;;;14.43;;
75038;SDS011;63609;49.992;14.512;2022-11-18T19:24:58;32.13;;;12.30;;
75038;SDS011;63609;49.992;14.512;2022-11-18T19:27:27;35.05;;;13.73;;
75038;SDS011;63609;49.992;14.512;2022-11-18T19:30:04;40.38;;;16.27;;
75038;SDS011;63609;49.992;14.512;2022-11-18T19:32:36;38.20;;;15.05;;
75038;SDS011;63609;49.992;14.512;2022-11-18T19:35:04;34.22;;;13.55;;
75038;SDS011;63609;49.992;14.512;2022-11-18T19:37:33;40.72;;;14.27;;
75038;SDS011;63609;49.992;14.512;2022-11-18T19:39:59;38.25;;;15.85;;
75038;SDS011;63609;49.992;14.512;2022-11-18T19:42:35;38.28;;;16.58;;
75038;SDS011;63609;49.992;14.512;2022-11-18T19:45:03;33.85;;;13.68;;
75038;SDS011;63609;49.992;14.512;2022-11-18T19:47:30;43.63;;;16.35;;
75038;SDS011;63609;49.992;14.512;2022-11-18T19:49:57;38.63;;;15.18;;
75038;SDS011;63609;49.992;14.512;2022-11-18T19:54:51;32.00;;;13.90;;
75038;SDS011;63609;49.992;14.512;2022-11-18T19:59:44;27.67;;;12.70;;
75038;SDS011;63609;49.992;14.512;2022-11-18T20:02:12;38.42;;;14.63;;
75038;SDS011;63609;49.992;14.512;2022-11-18T20:04:39;40.60;;;14.65;;
75038;SDS011;63609;49.992;14.512;2022-11-18T20:07:06;41.15;;;14.35;;
75038;SDS011;63609;49.992;14.512;2022-11-18T20:11:59;35.33;;;13.35;;
75038;SDS011;63609;49.992;14.512;2022-11-18T20:14:26;34.10;;;12.63;;
75038;SDS011;63609;49.992;14.512;2022-11-18T20:16:53;40.97;;;15.60;;
75038;SDS011;63609;49.992;14.512;2022-11-18T20:19:19;37.30;;;14.80;;
75038;SDS011;63609;49.992;14.512;2022-11-18T20:21:46;33.05;;;12.50;;
75038;SDS011;63609;49.992;14.512;2022-11-18T20:24:15;36.42;;;14.30;;
75038;SDS011;63609;49.992;14.512;2022-11-18T20:26:43;26.25;;;10.15;;
75038;SDS011;63609;49.992;14.512;2022-11-18T20:29:10;33.17;;;13.05;;
75038;SDS011;63609;49.992;14.512;2022-11-18T20:31:38;34.42;;;14.23;;
75038;SDS011;63609;49.992;14.512;2022-11-18T20:34:04;43.85;;;14.10;;
75038;SDS011;63609;49.992;14.512;2022-11-18T20:36:33;38.10;;;14.02;;
75038;SDS011;63609;49.992;14.512;2022-11-18T20:39:03;34.45;;;13.05;;
75038;SDS011;63609;49.992;14.512;2022-11-18T20:41:32;32.47;;;12.02;;
75038;SDS011;63609;49.992;14.512;2022-11-18T20:44:01;33.42;;;13.32;;
75038;SDS011;63609;49.992;14.512;2022-11-18T20:46:28;34.60;;;12.00;;
75038;SDS011;63609;49.992;14.512;2022-11-18T20:48:55;24.00;;;9.63;;
75038;SDS011;63609;49.992;14.512;2022-11-18T20:51:23;27.13;;;10.20;;
75038;SDS011;63609;49.992;14.512;2022-11-18T20:53:53;27.10;;;10.05;;
75038;SDS011;63609;49.992;14.512;2022-11-18T20:56:22;25.63;;;9.40;;
75038;SDS011;63609;49.992;14.512;2022-11-18T20:58:50;27.58;;;10.48;;
75038;SDS011;63609;49.992;14.512;2022-11-18T21:01:25;22.90;;;8.95;;
75038;SDS011;63609;49.992;14.512;2022-11-18T21:03:54;24.73;;;10.55;;
75038;SDS011;63609;49.992;14.512;2022-11-18T21:06:24;25.30;;;8.95;;
75038;SDS011;63609;49.992;14.512;2022-11-18T21:08:59;27.55;;;10.93;;
75038;SDS011;63609;49.992;14.512;2022-11-18T21:11:28;27.95;;;11.40;;
75038;SDS011;63609;49.992;14.512;2022-11-18T21:13:55;29.75;;;10.32;;
75038;SDS011;63609;49.992;14.512;2022-11-18T21:16:48;33.10;;;11.98;;
75038;SDS011;63609;49.992;14.512;2022-11-18T21:19:16;31.83;;;10.93;;
75038;SDS011;63609;49.992;14.512;2022-11-18T21:21:45;21.42;;;9.07;;
75038;SDS011;63609;49.992;14.512;2022-11-18T21:26:43;26.52;;;10.52;;
75038;SDS011;63609;49.992;14.512;2022-11-18T21:29:13;23.73;;;10.00;;
75038;SDS011;63609;49.992;14.512;2022-11-18T21:31:43;26.80;;;10.00;;
75038;SDS011;63609;49.992;14.512;2022-11-18T21:34:12;21.70;;;9.15;;
75038;SDS011;63609;49.992;14.512;2022-11-18T21:36:40;27.17;;;10.82;;
75038;SDS011;63609;49.992;14.512;2022-11-18T21:39:15;26.38;;;10.80;;
75038;SDS011;63609;49.992;14.512;2022-11-18T21:41:42;28.85;;;11.48;;
75038;SDS011;63609;49.992;14.512;2022-11-18T21:46:40;29.02;;;10.38;;
75038;SDS011;63609;49.992;14.512;2022-11-18T21:49:13;28.55;;;9.88;;
75038;SDS011;63609;49.992;14.512;2022-11-18T21:51:40;25.45;;;9.65;;
75038;SDS011;63609;49.992;14.512;2022-11-18T21:54:06;26.10;;;9.40;;
75038;SDS011;63609;49.992;14.512;2022-11-18T21:56:39;28.00;;;10.73;;
75038;SDS011;63609;49.992;14.512;2022-11-18T21:59:06;23.30;;;9.77;;
75038;SDS011;63609;49.992;14.512;2022-11-18T22:01:38;18.80;;;7.60;;
75038;SDS011;63609;49.992;14.512;2022-11-18T22:04:05;22.63;;;8.77;;
75038;SDS011;63609;49.992;14.512;2022-11-18T22:06:32;26.67;;;9.25;;
75038;SDS011;63609;49.992;14.512;2022-11-18T22:09:00;19.20;;;7.97;;
75038;SDS011;63609;49.992;14.512;2022-11-18T22:11:28;20.75;;;7.70;;
75038;SDS011;63609;49.992;14.512;2022-11-18T22:13:55;21.90;;;9.85;;
75038;SDS011;63609;49.992;14.512;2022-11-18T22:16:22;16.33;;;6.80;;
75038;SDS011;63609;49.992;14.512;2022-11-18T22:18:53;22.88;;;8.35;;
75038;SDS011;63609;49.992;14.512;2022-11-18T22:21:26;16.52;;;7.35;;
75038;SDS011;63609;49.992;14.512;2022-11-18T22:23:56;16.65;;;6.80;;
75038;SDS011;63609;49.992;14.512;2022-11-18T22:26:25;18.58;;;7.32;;
75038;SDS011;63609;49.992;14.512;2022-11-18T22:28:53;20.77;;;8.00;;
75038;SDS011;63609;49.992;14.512;2022-11-18T22:31:21;18.63;;;7.63;;
75038;SDS011;63609;49.992;14.512;2022-11-18T22:33:50;14.45;;;6.50;;
75038;SDS011;63609;49.992;14.512;2022-11-18T22:36:18;16.42;;;5.88;;
75038;SDS011;63609;49.992;14.512;2022-11-18T22:38:46;12.90;;;5.35;;
75038;SDS011;63609;49.992;14.512;2022-11-18T22:41:14;12.13;;;5.75;;
75038;SDS011;63609;49.992;14.512;2022-11-18T22:44:00;11.15;;;4.45;;
75038;SDS011;63609;49.992;14.512;2022-11-18T22:46:33;12.13;;;5.78;;
75038;SDS011;63609;49.992;14.512;2022-11-18T22:49:00;16.52;;;5.53;;
75038;SDS011;63609;49.992;14.512;2022-11-18T22:51:27;11.35;;;5.78;;
75038;SDS011;63609;49.992;14.512;2022-11-18T22:53:54;9.50;;;4.85;;
75038;SDS011;63609;49.992;14.512;2022-11-18T22:56:40;10.60;;;5.55;;
75038;SDS011;63609;49.992;14.512;2022-11-18T22:59:10;11.55;;;5.20;;
75038;SDS011;63609;49.992;14.512;2022-11-18T23:01:37;9.80;;;4.70;;
75038;SDS011;63609;49.992;14.512;2022-11-18T23:04:16;13.43;;;5.30;;
75038;SDS011;63609;49.992;14.512;2022-11-18T23:06:43;12.65;;;4.90;;
75038;SDS011;63609;49.992;14.512;2022-11-18T23:09:09;12.10;;;5.88;;
75038;SDS011;63609;49.992;14.512;2022-11-18T23:11:36;9.52;;;4.65;;
75038;SDS011;63609;49.992;14.512;2022-11-18T23:14:21;14.88;;;5.18;;
75038;SDS011;63609;49.992;14.512;2022-11-18T23:16:48;10.65;;;5.00;;
75038;SDS011;63609;49.992;14.512;2022-11-18T23:19:15;12.18;;;5.38;;
75038;SDS011;63609;49.992;14.512;2022-11-18T23:21:43;13.90;;;5.85;;
75038;SDS011;63609;49.992;14.512;2022-11-18T23:24:11;12.00;;;4.70;;
75038;SDS011;63609;49.992;14.512;2022-11-18T23:26:39;11.48;;;4.55;;
75038;SDS011;63609;49.992;14.512;2022-11-18T23:29:08;11.63;;;5.65;;
75038;SDS011;63609;49.992;14.512;2022-11-18T23:31:36;9.52;;;4.63;;
75038;SDS011;63609;49.992;14.512;2022-11-18T23:34:06;10.25;;;4.88;;
75038;SDS011;63609;49.992;14.512;2022-11-18T23:36:33;11.93;;;5.50;;
75038;SDS011;63609;49.992;14.512;2022-11-18T23:39:00;11.93;;;6.00;;
75038;SDS011;63609;49.992;14.512;2022-11-18T23:41:27;13.52;;;5.90;;
75038;SDS011;63609;49.992;14.512;2022-11-18T23:43:53;13.90;;;5.70;;
75038;SDS011;63609;49.992;14.512;2022-11-18T23:46:20;13.00;;;5.40;;
75038;SDS011;63609;49.992;14.512;2022-11-18T23:51:17;11.95;;;4.85;;
75038;SDS011;63609;49.992;14.512;2022-11-18T23:53:46;11.75;;;5.03;;
75038;SDS011;63609;49.992;14.512;2022-11-18T23:56:17;12.70;;;5.85;;
75038;SDS011;63609;49.992;14.512;2022-11-18T23:58:46;12.60;;;5.60;;
